Karelia II — UFMR — position and weather

sailwx.info

Track history (hours):
 
Tides and Currents Weather Stations Pressure Air Temp Water Temp Dewpoint Dewpoint Depression Visibility Wind Speed Wind Dir Waves Ship Positions

Karelia II

Last reported at 2018-Feb-23 09:12 UTC. Time now 2018-Feb-23 16:59 UTC.
Position N 70°29' E 018°34'.

Length 60 m; draft 8 m.

Type: Fishing. MMSI: 273425330.

Date/timePositionNaut miles runAvg speedWind from/ knotsBaromVisibWave heightAir tempDewpointWater temp
2018-Feb-23 09:12N 70°29' E 018°34'210.6
2018-Feb-23 09:00N 70°29' E 018°40'611.0
2018-Feb-23 08:30N 70°32' E 018°56'510.5
2018-Feb-23 08:00N 70°34' E 019°10'611.3
2018-Feb-23 07:30N 70°36' E 019°25'611.0
2018-Feb-23 06:59N 70°39' E 019°40'510.8
2018-Feb-23 06:30N 70°41' E 019°55'1111.0
2018-Feb-23 05:32N 70°45' E 020°24'411.1
2018-Feb-23 05:10N 70°41' E 020°27'211.5
2018-Feb-23 05:00N 70°39' E 020°27'611.4
2018-Feb-23 04:30N 70°34' E 020°29'511.0
2018-Feb-23 04:00N 70°28' E 020°30'510.8
2018-Feb-23 03:31N 70°23' E 020°29'510.1
2018-Feb-23 03:00N 70°18' E 020°26'510.3
2018-Feb-23 02:30N 70°13' E 020°21'510.4
2018-Feb-23 02:01N 70°08' E 020°15'510.3
2018-Feb-23 01:30N 70°03' E 020°09'510.4
2018-Feb-23 01:00N 69°59' E 020°01'510.5
2018-Feb-23 00:30N 69°55' E 019°53'5 9.6
2018-Feb-23 00:00N 69°51' E 019°44'510.9
2018-Feb-22 23:30N 69°49' E 019°30'611.0
2018-Feb-22 22:59N 69°47' E 019°14'4 8.6
2018-Feb-22 22:30N 69°45' E 019°04'4 7.6
2018-Feb-22 22:00N 69°41' E 019°01'2 3.4
2018-Feb-22 21:28N 69°40' E 018°58'0 0.0
2018-Feb-22 20:58N 69°40' E 018°58'0 0.0
2018-Feb-22 20:28N 69°40' E 018°58'0 0.0
2018-Feb-22 19:58N 69°40' E 018°58'0 0.0
2018-Feb-22 19:28N 69°40' E 018°58'0 0.0
2018-Feb-22 18:58N 69°40' E 018°58'0 0.0
2018-Feb-22 18:28N 69°40' E 018°58'1 2.3
2018-Feb-22 17:59N 69°41' E 018°59'0 0.0
2018-Feb-22 17:29N 69°41' E 018°59'0 0.0
2018-Feb-22 16:59N 69°41' E 018°59'0 0.0
2018-Feb-22 16:29N 69°41' E 018°59'0 0.0
2018-Feb-22 15:59N 69°41' E 018°59'0 0.0
2018-Feb-22 15:29N 69°41' E 018°59'0 0.0
2018-Feb-22 14:59N 69°41' E 018°59'0 0.0
2018-Feb-22 14:29N 69°41' E 018°59'0 0.0
2018-Feb-22 13:59N 69°41' E 018°59'0 0.0
2018-Feb-22 13:29N 69°41' E 018°59'0 0.0
2018-Feb-22 12:59N 69°41' E 018°59'0 0.0
2018-Feb-22 12:29N 69°41' E 018°59'0 0.0
2018-Feb-22 11:59N 69°41' E 018°59'0 0.0
2018-Feb-22 11:29N 69°41' E 018°59'0 0.0
2018-Feb-22 10:59N 69°41' E 018°59'0 0.0
2018-Feb-22 10:29N 69°41' E 018°59'0 0.0
2018-Feb-22 09:59N 69°41' E 018°59'0 0.0
2018-Feb-22 09:29N 69°41' E 018°59'0 0.0
2018-Feb-22 08:59N 69°41' E 018°59'0 0.0
2018-Feb-22 08:29N 69°41' E 018°59'0 0.0
2018-Feb-22 07:59N 69°41' E 018°59'0 0.0
2018-Feb-22 07:29N 69°41' E 018°59'0 0.0
2018-Feb-22 06:59N 69°41' E 018°59'0 0.0
2018-Feb-22 06:29N 69°41' E 018°59'0 0.0
2018-Feb-22 05:59N 69°41' E 018°59'0 0.0
2018-Feb-22 05:29N 69°41' E 018°59'0 0.0
2018-Feb-22 04:59N 69°41' E 018°59'0 0.0
2018-Feb-22 04:29N 69°41' E 018°59'0 0.0
2018-Feb-22 03:59N 69°41' E 018°59'0 0.0
2018-Feb-22 03:29N 69°41' E 018°59'0 0.0
2018-Feb-22 02:59N 69°41' E 018°59'0 0.0
2018-Feb-22 02:29N 69°41' E 018°59'0 0.0
2018-Feb-22 01:59N 69°41' E 018°59'0 0.0
2018-Feb-22 01:29N 69°41' E 018°59'0 0.0
2018-Feb-22 00:59N 69°41' E 018°59'0 0.0
2018-Feb-22 00:29N 69°41' E 018°59'0 0.0
2018-Feb-21 23:59N 69°41' E 018°59'0 0.0
2018-Feb-21 23:29N 69°41' E 018°59'0 0.0
2018-Feb-21 22:59N 69°41' E 018°59'0 0.0
2018-Feb-21 22:29N 69°41' E 018°59'0 0.0
2018-Feb-21 21:59N 69°41' E 018°59'0 0.0
2018-Feb-21 21:29N 69°41' E 018°59'0 0.0
2018-Feb-21 20:59N 69°41' E 018°59'0 0.0
2018-Feb-21 20:29N 69°41' E 018°59'0 0.0
2018-Feb-21 19:59N 69°41' E 018°59'0 0.0
2018-Feb-21 19:29N 69°41' E 018°59'0 0.0
2018-Feb-21 18:59N 69°41' E 018°59'0 0.0
2018-Feb-21 18:29N 69°41' E 018°59'0 0.0
2018-Feb-21 17:59N 69°41' E 018°59'0 0.0
2018-Feb-21 17:29N 69°41' E 018°59'0 0.0
2018-Feb-21 16:59N 69°41' E 018°59'0 0.0
2018-Feb-21 16:29N 69°41' E 018°59'0 0.0
2018-Feb-21 15:59N 69°41' E 018°59'0 0.0
2018-Feb-21 15:29N 69°41' E 018°59'0 0.0
2018-Feb-21 14:59N 69°41' E 018°59'0 0.0
2018-Feb-21 14:29N 69°41' E 018°59'0 0.0
2018-Feb-21 13:59N 69°41' E 018°59'0 0.0
2018-Feb-21 13:29N 69°41' E 018°59'0 0.0
2018-Feb-21 12:59N 69°41' E 018°59'0 0.0
2018-Feb-21 12:29N 69°41' E 018°59'0 0.0
2018-Feb-21 11:59N 69°41' E 018°59'0 0.0
2018-Feb-21 11:29N 69°41' E 018°59'0 0.0
2018-Feb-21 10:59N 69°41' E 018°59'0 0.0
2018-Feb-21 10:29N 69°41' E 018°59'0 0.0
2018-Feb-21 09:59N 69°41' E 018°59'0 0.0
2018-Feb-21 09:29N 69°41' E 018°59'0 0.0
2018-Feb-21 08:59N 69°41' E 018°59'0 0.0
2018-Feb-21 08:29N 69°41' E 018°59'0 0.0
2018-Feb-21 07:59N 69°41' E 018°59'0 0.0
2018-Feb-21 07:29N 69°41' E 018°59'0 0.0
2018-Feb-21 06:59N 69°41' E 018°59'0 0.0
2018-Feb-21 06:29N 69°41' E 018°59'0 0.0
2018-Feb-21 05:59N 69°41' E 018°59'0 0.0
2018-Feb-21 05:29N 69°41' E 018°59'0 0.0
2018-Feb-21 04:59N 69°41' E 018°59'0 0.0
2018-Feb-21 04:29N 69°41' E 018°59'0 0.0
2018-Feb-21 03:59N 69°41' E 018°59'0 0.0
2018-Feb-21 03:29N 69°41' E 018°59'0 0.0
2018-Feb-21 02:59N 69°41' E 018°59'0 0.0
2018-Feb-21 02:29N 69°41' E 018°59'0 0.0
2018-Feb-21 01:59N 69°41' E 018°59'0 0.0
2018-Feb-21 01:29N 69°41' E 018°59'0 0.0
2018-Feb-21 00:59N 69°41' E 018°59'0 0.0
2018-Feb-21 00:29N 69°41' E 018°59'0 0.0
2018-Feb-20 23:59N 69°41' E 018°59'0 0.0
2018-Feb-20 23:29N 69°41' E 018°59'0 0.0
2018-Feb-20 22:59N 69°41' E 018°59'0 0.0
2018-Feb-20 22:29N 69°41' E 018°59'0 0.0
2018-Feb-20 21:59N 69°41' E 018°59'0 0.0
2018-Feb-20 21:29N 69°41' E 018°59'0 0.0
2018-Feb-20 20:59N 69°41' E 018°59'0 0.0
2018-Feb-20 20:29N 69°41' E 018°59'0 0.0
2018-Feb-20 19:59N 69°41' E 018°59'0 0.0
2018-Feb-20 19:29N 69°41' E 018°59'0 0.0
2018-Feb-20 18:59N 69°41' E 018°59'0 0.0
2018-Feb-20 18:29N 69°41' E 018°59'0 0.0
2018-Feb-20 17:59N 69°41' E 018°59'0 0.0
2018-Feb-20 17:29N 69°41' E 018°59'0 0.0
2018-Feb-20 16:58N 69°41' E 018°59'0 0.0
2018-Feb-20 16:28N 69°41' E 018°59'0 0.0
2018-Feb-20 15:58N 69°41' E 018°59'0 0.0
2018-Feb-20 15:28N 69°41' E 018°59'0 0.0
2018-Feb-20 14:58N 69°41' E 018°59'0 0.0
2018-Feb-20 14:28N 69°41' E 018°59'0 0.0
2018-Feb-20 13:58N 69°41' E 018°59'0 0.0
2018-Feb-20 13:28N 69°41' E 018°59'0 0.0
2018-Feb-20 12:58N 69°41' E 018°59'0 0.0
2018-Feb-20 12:28N 69°41' E 018°59'0 0.0
2018-Feb-20 11:58N 69°41' E 018°59'0 0.0
2018-Feb-20 11:28N 69°41' E 018°59'0 0.0
2018-Feb-20 10:58N 69°41' E 018°59'0 0.0
2018-Feb-20 10:28N 69°41' E 018°59'0 0.0
2018-Feb-20 09:58N 69°41' E 018°59'0 0.0
2018-Feb-20 09:28N 69°41' E 018°59'0 0.0
2018-Feb-20 09:00N 69°41' E 018°59'0 0.0
2018-Feb-20 08:29N 69°41' E 018°59'0 0.0
2018-Feb-20 08:00N 69°41' E 018°59'0 0.0
2018-Feb-20 07:30N 69°41' E 018°59'2 3.8
2018-Feb-20 07:00N 69°42' E 019°03'611.2
2018-Feb-20 06:29N 69°47' E 019°12'4 7.3
2018-Feb-20 06:00N 69°48' E 019°22'5 9.7
2018-Feb-20 05:30N 69°50' E 019°35'5 9.4
2018-Feb-20 05:00N 69°52' E 019°47'4 8.4
2018-Feb-20 04:29N 69°56' E 019°54'4 9.1
2018-Feb-20 04:00N 69°59' E 020°01'5 9.0
2018-Feb-20 03:29N 70°03' E 020°08'510.0
2018-Feb-20 03:00N 70°08' E 020°14'5 9.2
2018-Feb-20 02:30N 70°12' E 020°17'5 9.2
2018-Feb-20 01:59N 70°17' E 020°21'5 9.3
2018-Feb-20 01:30N 70°21' E 020°24'5 9.3
2018-Feb-20 01:00N 70°26' E 020°27'5 8.9
2018-Feb-20 00:29N 70°30' E 020°30'4 7.5
2018-Feb-19 23:59N 70°34' E 020°27'3 6.9
2018-Feb-19 23:30N 70°37' E 020°25'4 7.5
2018-Feb-19 23:00N 70°41' E 020°27'6 1.6
2018-Feb-19 19:26N 70°41' E 020°10'2 5.5
2018-Feb-19 19:00N 70°41' E 020°03'3 5.5
2018-Feb-19 18:30N 70°40' E 019°55'3 5.5
2018-Feb-19 18:00N 70°39' E 019°47'3 5.4
2018-Feb-19 17:30N 70°38' E 019°40'3 5.4
2018-Feb-19 17:00N 70°37' E 019°32'0 0.5
2018-Feb-19 16:30N 70°37' E 019°33'3 5.9
2018-Feb-19 16:00N 70°38' E 019°42'3 5.8
2018-Feb-19 15:30N 70°39' E 019°50'3 5.5
2018-Feb-19 15:00N 70°39' E 019°58'3 5.4
2018-Feb-19 14:30N 70°40' E 020°05'  
2018-Feb-13 15:26N 70°49' E 017°53'512.4
2018-Feb-13 15:00N 70°43' E 017°53'612.4
2018-Feb-13 14:30N 70°37' E 017°52'4 7.4
2018-Feb-13 14:00N 70°34' E 017°55'1 2.9
2018-Feb-13 13:30N 70°32' E 017°56'2 3.3
2018-Feb-13 13:00N 70°31' E 017°55'2 4.1
2018-Feb-13 12:30N 70°29' E 017°50'0 0.7
2018-Feb-13 12:00N 70°29' E 017°50'2 3.5
2018-Feb-13 11:30N 70°30' E 017°54'2 3.8
2018-Feb-13 11:00N 70°31' E 017°59'3 7.0
2018-Feb-13 10:30N 70°29' E 017°50'2 3.1
2018-Feb-13 10:00N 70°29' E 017°46'2 4.4
2018-Feb-13 09:30N 70°28' E 017°39'  
Track history (hours):
 
Tides and Currents Weather Stations Pressure Air Temp Water Temp Dewpoint Dewpoint Depression Visibility Wind Speed Wind Dir Waves Ship Positions

Karelia II

Last reported at 2018-Feb-23 09:12 UTC. Time now 2018-Feb-23 16:59 UTC.
Position N 70°29' E 018°34'.

Length 60 m; draft 8 m.

Type: Fishing. MMSI: 273425330.

Date/timePositionNaut miles runAvg speedWind from/ knotsBaromVisibWave heightAir tempDewpointWater temp
2018-Feb-23 09:12N 70°29' E 018°34'210.6
2018-Feb-23 09:00N 70°29' E 018°40'611.0
2018-Feb-23 08:30N 70°32' E 018°56'510.5
2018-Feb-23 08:00N 70°34' E 019°10'611.3
2018-Feb-23 07:30N 70°36' E 019°25'611.0
2018-Feb-23 06:59N 70°39' E 019°40'510.8
2018-Feb-23 06:30N 70°41' E 019°55'1111.0
2018-Feb-23 05:32N 70°45' E 020°24'411.1
2018-Feb-23 05:10N 70°41' E 020°27'211.5
2018-Feb-23 05:00N 70°39' E 020°27'611.4
2018-Feb-23 04:30N 70°34' E 020°29'511.0
2018-Feb-23 04:00N 70°28' E 020°30'510.8
2018-Feb-23 03:31N 70°23' E 020°29'510.1
2018-Feb-23 03:00N 70°18' E 020°26'510.3
2018-Feb-23 02:30N 70°13' E 020°21'510.4
2018-Feb-23 02:01N 70°08' E 020°15'510.3
2018-Feb-23 01:30N 70°03' E 020°09'510.4
2018-Feb-23 01:00N 69°59' E 020°01'510.5
2018-Feb-23 00:30N 69°55' E 019°53'5 9.6
2018-Feb-23 00:00N 69°51' E 019°44'510.9
2018-Feb-22 23:30N 69°49' E 019°30'611.0
2018-Feb-22 22:59N 69°47' E 019°14'4 8.6
2018-Feb-22 22:30N 69°45' E 019°04'4 7.6
2018-Feb-22 22:00N 69°41' E 019°01'2 3.4
2018-Feb-22 21:28N 69°40' E 018°58'0 0.0
2018-Feb-22 20:58N 69°40' E 018°58'0 0.0
2018-Feb-22 20:28N 69°40' E 018°58'0 0.0
2018-Feb-22 19:58N 69°40' E 018°58'0 0.0
2018-Feb-22 19:28N 69°40' E 018°58'0 0.0
2018-Feb-22 18:58N 69°40' E 018°58'0 0.0
2018-Feb-22 18:28N 69°40' E 018°58'1 2.3
2018-Feb-22 17:59N 69°41' E 018°59'0 0.0
2018-Feb-22 17:29N 69°41' E 018°59'0 0.0
2018-Feb-22 16:59N 69°41' E 018°59'0 0.0
2018-Feb-22 16:29N 69°41' E 018°59'0 0.0
2018-Feb-22 15:59N 69°41' E 018°59'0 0.0
2018-Feb-22 15:29N 69°41' E 018°59'0 0.0
2018-Feb-22 14:59N 69°41' E 018°59'0 0.0
2018-Feb-22 14:29N 69°41' E 018°59'0 0.0
2018-Feb-22 13:59N 69°41' E 018°59'0 0.0
2018-Feb-22 13:29N 69°41' E 018°59'0 0.0
2018-Feb-22 12:59N 69°41' E 018°59'0 0.0
2018-Feb-22 12:29N 69°41' E 018°59'0 0.0
2018-Feb-22 11:59N 69°41' E 018°59'0 0.0
2018-Feb-22 11:29N 69°41' E 018°59'0 0.0
2018-Feb-22 10:59N 69°41' E 018°59'0 0.0
2018-Feb-22 10:29N 69°41' E 018°59'0 0.0
2018-Feb-22 09:59N 69°41' E 018°59'0 0.0
2018-Feb-22 09:29N 69°41' E 018°59'0 0.0
2018-Feb-22 08:59N 69°41' E 018°59'0 0.0
2018-Feb-22 08:29N 69°41' E 018°59'0 0.0
2018-Feb-22 07:59N 69°41' E 018°59'0 0.0
2018-Feb-22 07:29N 69°41' E 018°59'0 0.0
2018-Feb-22 06:59N 69°41' E 018°59'0 0.0
2018-Feb-22 06:29N 69°41' E 018°59'0 0.0
2018-Feb-22 05:59N 69°41' E 018°59'0 0.0
2018-Feb-22 05:29N 69°41' E 018°59'0 0.0
2018-Feb-22 04:59N 69°41' E 018°59'0 0.0
2018-Feb-22 04:29N 69°41' E 018°59'0 0.0
2018-Feb-22 03:59N 69°41' E 018°59'0 0.0
2018-Feb-22 03:29N 69°41' E 018°59'0 0.0
2018-Feb-22 02:59N 69°41' E 018°59'0 0.0
2018-Feb-22 02:29N 69°41' E 018°59'0 0.0
2018-Feb-22 01:59N 69°41' E 018°59'0 0.0
2018-Feb-22 01:29N 69°41' E 018°59'0 0.0
2018-Feb-22 00:59N 69°41' E 018°59'0 0.0
2018-Feb-22 00:29N 69°41' E 018°59'0 0.0
2018-Feb-21 23:59N 69°41' E 018°59'0 0.0
2018-Feb-21 23:29N 69°41' E 018°59'0 0.0
2018-Feb-21 22:59N 69°41' E 018°59'0 0.0
2018-Feb-21 22:29N 69°41' E 018°59'0 0.0
2018-Feb-21 21:59N 69°41' E 018°59'0 0.0
2018-Feb-21 21:29N 69°41' E 018°59'0 0.0
2018-Feb-21 20:59N 69°41' E 018°59'0 0.0
2018-Feb-21 20:29N 69°41' E 018°59'0 0.0
2018-Feb-21 19:59N 69°41' E 018°59'0 0.0
2018-Feb-21 19:29N 69°41' E 018°59'0 0.0
2018-Feb-21 18:59N 69°41' E 018°59'0 0.0
2018-Feb-21 18:29N 69°41' E 018°59'0 0.0
2018-Feb-21 17:59N 69°41' E 018°59'0 0.0
2018-Feb-21 17:29N 69°41' E 018°59'0 0.0
2018-Feb-21 16:59N 69°41' E 018°59'0 0.0
2018-Feb-21 16:29N 69°41' E 018°59'0 0.0
2018-Feb-21 15:59N 69°41' E 018°59'0 0.0
2018-Feb-21 15:29N 69°41' E 018°59'0 0.0
2018-Feb-21 14:59N 69°41' E 018°59'0 0.0
2018-Feb-21 14:29N 69°41' E 018°59'0 0.0
2018-Feb-21 13:59N 69°41' E 018°59'0 0.0
2018-Feb-21 13:29N 69°41' E 018°59'0 0.0
2018-Feb-21 12:59N 69°41' E 018°59'0 0.0
2018-Feb-21 12:29N 69°41' E 018°59'0 0.0
2018-Feb-21 11:59N 69°41' E 018°59'0 0.0
2018-Feb-21 11:29N 69°41' E 018°59'0 0.0
2018-Feb-21 10:59N 69°41' E 018°59'0 0.0
2018-Feb-21 10:29N 69°41' E 018°59'0 0.0
2018-Feb-21 09:59N 69°41' E 018°59'0 0.0
2018-Feb-21 09:29N 69°41' E 018°59'0 0.0
2018-Feb-21 08:59N 69°41' E 018°59'0 0.0
2018-Feb-21 08:29N 69°41' E 018°59'0 0.0
2018-Feb-21 07:59N 69°41' E 018°59'0 0.0
2018-Feb-21 07:29N 69°41' E 018°59'0 0.0
2018-Feb-21 06:59N 69°41' E 018°59'0 0.0
2018-Feb-21 06:29N 69°41' E 018°59'0 0.0
2018-Feb-21 05:59N 69°41' E 018°59'0 0.0
2018-Feb-21 05:29N 69°41' E 018°59'0 0.0
2018-Feb-21 04:59N 69°41' E 018°59'0 0.0
2018-Feb-21 04:29N 69°41' E 018°59'0 0.0
2018-Feb-21 03:59N 69°41' E 018°59'0 0.0
2018-Feb-21 03:29N 69°41' E 018°59'0 0.0
2018-Feb-21 02:59N 69°41' E 018°59'0 0.0
2018-Feb-21 02:29N 69°41' E 018°59'0 0.0
2018-Feb-21 01:59N 69°41' E 018°59'0 0.0
2018-Feb-21 01:29N 69°41' E 018°59'0 0.0
2018-Feb-21 00:59N 69°41' E 018°59'0 0.0
2018-Feb-21 00:29N 69°41' E 018°59'0 0.0
2018-Feb-20 23:59N 69°41' E 018°59'0 0.0
2018-Feb-20 23:29N 69°41' E 018°59'0 0.0
2018-Feb-20 22:59N 69°41' E 018°59'0 0.0
2018-Feb-20 22:29N 69°41' E 018°59'0 0.0
2018-Feb-20 21:59N 69°41' E 018°59'0 0.0
2018-Feb-20 21:29N 69°41' E 018°59'0 0.0
2018-Feb-20 20:59N 69°41' E 018°59'0 0.0
2018-Feb-20 20:29N 69°41' E 018°59'0 0.0
2018-Feb-20 19:59N 69°41' E 018°59'0 0.0
2018-Feb-20 19:29N 69°41' E 018°59'0 0.0
2018-Feb-20 18:59N 69°41' E 018°59'0 0.0
2018-Feb-20 18:29N 69°41' E 018°59'0 0.0
2018-Feb-20 17:59N 69°41' E 018°59'0 0.0
2018-Feb-20 17:29N 69°41' E 018°59'0 0.0
2018-Feb-20 16:58N 69°41' E 018°59'0 0.0
2018-Feb-20 16:28N 69°41' E 018°59'0 0.0
2018-Feb-20 15:58N 69°41' E 018°59'0 0.0
2018-Feb-20 15:28N 69°41' E 018°59'0 0.0
2018-Feb-20 14:58N 69°41' E 018°59'0 0.0
2018-Feb-20 14:28N 69°41' E 018°59'0 0.0
2018-Feb-20 13:58N 69°41' E 018°59'0 0.0
2018-Feb-20 13:28N 69°41' E 018°59'0 0.0
2018-Feb-20 12:58N 69°41' E 018°59'0 0.0
2018-Feb-20 12:28N 69°41' E 018°59'0 0.0
2018-Feb-20 11:58N 69°41' E 018°59'0 0.0
2018-Feb-20 11:28N 69°41' E 018°59'0 0.0
2018-Feb-20 10:58N 69°41' E 018°59'0 0.0
2018-Feb-20 10:28N 69°41' E 018°59'0 0.0
2018-Feb-20 09:58N 69°41' E 018°59'0 0.0
2018-Feb-20 09:28N 69°41' E 018°59'0 0.0
2018-Feb-20 09:00N 69°41' E 018°59'0 0.0
2018-Feb-20 08:29N 69°41' E 018°59'0 0.0
2018-Feb-20 08:00N 69°41' E 018°59'0 0.0
2018-Feb-20 07:30N 69°41' E 018°59'2 3.8
2018-Feb-20 07:00N 69°42' E 019°03'611.2
2018-Feb-20 06:29N 69°47' E 019°12'4 7.3
2018-Feb-20 06:00N 69°48' E 019°22'5 9.7
2018-Feb-20 05:30N 69°50' E 019°35'5 9.4
2018-Feb-20 05:00N 69°52' E 019°47'4 8.4
2018-Feb-20 04:29N 69°56' E 019°54'4 9.1
2018-Feb-20 04:00N 69°59' E 020°01'5 9.0
2018-Feb-20 03:29N 70°03' E 020°08'510.0
2018-Feb-20 03:00N 70°08' E 020°14'5 9.2
2018-Feb-20 02:30N 70°12' E 020°17'5 9.2
2018-Feb-20 01:59N 70°17' E 020°21'5 9.3
2018-Feb-20 01:30N 70°21' E 020°24'5 9.3
2018-Feb-20 01:00N 70°26' E 020°27'5 8.9
2018-Feb-20 00:29N 70°30' E 020°30'4 7.5
2018-Feb-19 23:59N 70°34' E 020°27'3 6.9
2018-Feb-19 23:30N 70°37' E 020°25'4 7.5
2018-Feb-19 23:00N 70°41' E 020°27'6 1.6
2018-Feb-19 19:26N 70°41' E 020°10'2 5.5
2018-Feb-19 19:00N 70°41' E 020°03'3 5.5
2018-Feb-19 18:30N 70°40' E 019°55'3 5.5
2018-Feb-19 18:00N 70°39' E 019°47'3 5.4
2018-Feb-19 17:30N 70°38' E 019°40'3 5.4
2018-Feb-19 17:00N 70°37' E 019°32'0 0.5
2018-Feb-19 16:30N 70°37' E 019°33'3 5.9
2018-Feb-19 16:00N 70°38' E 019°42'3 5.8
2018-Feb-19 15:30N 70°39' E 019°50'3 5.5
2018-Feb-19 15:00N 70°39' E 019°58'3 5.4
2018-Feb-19 14:30N 70°40' E 020°05'  
2018-Feb-13 15:26N 70°49' E 017°53'512.4
2018-Feb-13 15:00N 70°43' E 017°53'612.4
2018-Feb-13 14:30N 70°37' E 017°52'4 7.4
2018-Feb-13 14:00N 70°34' E 017°55'1 2.9
2018-Feb-13 13:30N 70°32' E 017°56'2 3.3
2018-Feb-13 13:00N 70°31' E 017°55'2 4.1
2018-Feb-13 12:30N 70°29' E 017°50'0 0.7
2018-Feb-13 12:00N 70°29' E 017°50'2 3.5
2018-Feb-13 11:30N 70°30' E 017°54'2 3.8
2018-Feb-13 11:00N 70°31' E 017°59'3 7.0
2018-Feb-13 10:30N 70°29' E 017°50'2 3.1
2018-Feb-13 10:00N 70°29' E 017°46'2 4.4
2018-Feb-13 09:30N 70°28' E 017°39'  

Dump ship's entire track history